Erikoussa — SVGV — position and weather

sailwx.info

Track history (hours):
 
Tides and Currents Weather Stations Pressure Air Temp Water Temp Dewpoint Dewpoint Depression Visibility Wind Speed Wind Dir Waves Ship Positions

Erikoussa

Last reported at 2018-Feb-21 02:05 UTC. Time now 2018-Feb-25 01:52 UTC.
Position N 27°48' W 096°59'.

Length 229 m; draft 8.3 m.

Type: Tanker. MMSI: 237928000.

Date/timePositionNaut miles runAvg speedWind from/ knotsBaromVisibWave heightAir tempDewpointWater temp
2018-Feb-21 02:05N 27°48' W 096°59'0 6.2
2018-Feb-21 02:00N 27°48' W 096°58'3 6.4
2018-Feb-21 01:30N 27°47' W 096°55'3 5.2
2018-Feb-21 00:58N 27°47' W 096°52'1 2.2
2018-Feb-21 00:29N 27°48' W 096°52'0 0.1
2018-Feb-20 23:59N 27°48' W 096°53'0 0.0
2018-Feb-20 23:29N 27°48' W 096°53'0 0.2
2018-Feb-20 23:00N 27°48' W 096°52'1 1.7
2018-Feb-20 22:29N 27°48' W 096°53'3 6.9
2018-Feb-20 22:00N 27°48' W 096°57'3 5.5
2018-Feb-20 21:29N 27°47' W 096°54'2 3.3
2018-Feb-20 20:57N 27°48' W 096°53'0 0.1
2018-Feb-20 20:27N 27°48' W 096°53'0 0.0
2018-Feb-20 20:00N 27°48' W 096°53'0 0.0
2018-Feb-20 19:27N 27°48' W 096°53'0 0.0
2018-Feb-20 19:00N 27°48' W 096°53'0 0.0
2018-Feb-20 18:30N 27°48' W 096°53'0 0.0
2018-Feb-20 18:00N 27°48' W 096°53'0 0.0
2018-Feb-20 17:30N 27°48' W 096°53'0 0.0
2018-Feb-20 17:00N 27°48' W 096°53'0 0.0
2018-Feb-20 16:30N 27°48' W 096°53'0 0.1
2018-Feb-20 16:00N 27°48' W 096°53'0 0.0
2018-Feb-20 15:24N 27°48' W 096°53'0 0.0
2018-Feb-20 15:00N 27°48' W 096°53'0 0.0
2018-Feb-20 14:27N 27°48' W 096°53'0 0.0
2018-Feb-20 14:00N 27°48' W 096°53'0 0.0
2018-Feb-20 13:30N 27°48' W 096°53'0 0.0
2018-Feb-20 13:00N 27°48' W 096°53'0 0.0
2018-Feb-20 12:30N 27°48' W 096°53'0 0.0
2018-Feb-20 12:00N 27°48' W 096°53'0 0.0
2018-Feb-20 11:27N 27°48' W 096°53'0 0.0
2018-Feb-20 11:00N 27°48' W 096°53'0 0.0
2018-Feb-20 10:27N 27°48' W 096°53'0 0.0
2018-Feb-20 10:00N 27°48' W 096°53'0 0.0
2018-Feb-20 09:30N 27°48' W 096°53'0 0.0
2018-Feb-20 09:00N 27°48' W 096°53'0 0.0
2018-Feb-20 08:30N 27°48' W 096°53'0 0.0
2018-Feb-20 08:00N 27°48' W 096°53'0 0.0
2018-Feb-20 07:30N 27°48' W 096°53'0 0.0
2018-Feb-20 07:00N 27°48' W 096°53'0 0.0
2018-Feb-20 06:30N 27°48' W 096°53'0 0.0
2018-Feb-20 06:00N 27°48' W 096°53'0 0.0
2018-Feb-20 05:30N 27°48' W 096°53'0 0.0
2018-Feb-20 05:00N 27°48' W 096°53'0 0.0
2018-Feb-20 04:30N 27°48' W 096°53'0 0.0
2018-Feb-20 04:00N 27°48' W 096°53'0 0.0
2018-Feb-20 03:30N 27°48' W 096°53'0 0.0
2018-Feb-20 03:00N 27°48' W 096°53'0 0.0
2018-Feb-20 02:30N 27°48' W 096°53'0 0.0
2018-Feb-20 01:57N 27°48' W 096°53'0 0.0
2018-Feb-20 01:30N 27°48' W 096°53'0 0.0
2018-Feb-20 01:00N 27°48' W 096°53'0 0.0
2018-Feb-20 00:30N 27°48' W 096°53'0 0.0
2018-Feb-20 00:00N 27°48' W 096°53'0 0.0
2018-Feb-19 23:27N 27°48' W 096°53'0 0.0
2018-Feb-19 23:00N 27°48' W 096°53'0 0.0
2018-Feb-19 22:30N 27°48' W 096°53'0 0.0
2018-Feb-19 22:00N 27°48' W 096°53'0 0.0
2018-Feb-19 21:24N 27°48' W 096°53'0 0.0
2018-Feb-19 21:00N 27°48' W 096°53'0 0.0
2018-Feb-19 20:30N 27°48' W 096°53'0 0.0
2018-Feb-19 20:00N 27°48' W 096°53'0 0.0
2018-Feb-19 19:30N 27°48' W 096°53'0 0.0
2018-Feb-19 19:00N 27°48' W 096°53'0 0.0
2018-Feb-19 18:30N 27°48' W 096°53'0 0.0
2018-Feb-19 18:00N 27°48' W 096°53'0 0.0
2018-Feb-19 17:30N 27°48' W 096°53'0 0.0
2018-Feb-19 17:00N 27°48' W 096°53'0 0.1
2018-Feb-19 16:27N 27°48' W 096°53'0 0.1
2018-Feb-19 16:00N 27°48' W 096°53'0 0.0
2018-Feb-19 15:30N 27°48' W 096°53'0 0.0
2018-Feb-19 15:00N 27°48' W 096°53'0 0.0
2018-Feb-19 14:30N 27°48' W 096°53'0 0.0
2018-Feb-19 14:00N 27°48' W 096°53'0 0.5
2018-Feb-19 13:30N 27°48' W 096°53'2 3.4
2018-Feb-19 12:59N 27°46' W 096°53'5 9.7
2018-Feb-19 12:29N 27°44' W 096°48'511.4
2018-Feb-19 12:00N 27°41' W 096°43'3 6.8
2018-Feb-19 11:29N 27°40' W 096°39'5 9.8
2018-Feb-19 10:59N 27°37' W 096°35'510.0
2018-Feb-19 10:30N 27°35' W 096°30'5 9.2
2018-Feb-19 09:58N 27°34' W 096°24'5 9.3
2018-Feb-19 09:28N 27°35' W 096°19'5 9.5
2018-Feb-19 08:54N 27°35' W 096°13'5 9.5
2018-Feb-19 08:24N 27°36' W 096°08'4 9.6
2018-Feb-19 07:56N 27°36' W 096°03'4 9.8
2018-Feb-19 07:30N 27°36' W 095°58'6 9.9
2018-Feb-19 06:56N 27°37' W 095°52'5 9.9
2018-Feb-19 06:26N 27°37' W 095°46'7010.4
2018-Feb-18 23:44N 27°43' W 094°28'53 6.8
2018-Feb-18 15:52N 28°36' W 094°25'3 7.6
2018-Feb-18 15:24N 28°40' W 094°25'3 6.4
2018-Feb-18 15:00N 28°42' W 094°24'4 8.0
2018-Feb-18 14:30N 28°44' W 094°19'4 7.9
2018-Feb-18 13:58N 28°45' W 094°15'510.6
2018-Feb-18 13:29N 28°47' W 094°10'0 0.8
2018-Feb-18 12:59N 28°47' W 094°09'1 0.9
2018-Feb-18 12:26N 28°47' W 094°10'1 1.4
2018-Feb-18 11:59N 28°46' W 094°09'0 0.4
2018-Feb-18 10:55N 28°47' W 094°09'0 0.0
2018-Feb-18 08:35N 28°47' W 094°09'0 0.0
2018-Feb-18 08:29N 28°47' W 094°09'0 0.0
2018-Feb-18 07:45N 28°47' W 094°09'0 0.0
2018-Feb-18 07:19N 28°47' W 094°09'0 0.0
2018-Feb-18 03:10N 28°47' W 094°09'7 0.5
2018-Feb-17 15:03N 28°43' W 094°15'4 0.5
2018-Feb-17 07:17N 28°40' W 094°17'0 0.2
2018-Feb-17 06:52N 28°39' W 094°17'0 1.1
2018-Feb-17 06:30N 28°40' W 094°17'1 1.0
2018-Feb-17 05:52N 28°39' W 094°17'0 0.9
2018-Feb-17 05:25N 28°39' W 094°17'1 0.9
2018-Feb-17 04:12N 28°38' W 094°17'1 2.8
2018-Feb-17 03:57N 28°37' W 094°17'3 6.2
2018-Feb-17 03:30N 28°35' W 094°15'0 0.3
2018-Feb-17 02:35N 28°35' W 094°15'1 0.0
2018-Feb-16 15:08N 28°34' W 094°15'0 0.1
2018-Feb-16 14:59N 28°34' W 094°15'0 0.0
2018-Feb-16 10:56N 28°34' W 094°15'0 0.0
2018-Feb-15 06:59N 28°34' W 094°15'0 0.0
2018-Feb-15 06:20N 28°34' W 094°15'0 0.0
2018-Feb-15 05:59N 28°34' W 094°15'0 0.0
2018-Feb-15 05:29N 28°34' W 094°15'0 0.0
2018-Feb-15 04:29N 28°34' W 094°15'0 0.0
2018-Feb-15 03:14N 28°34' W 094°15'0 0.0
2018-Feb-15 02:44N 28°34' W 094°15'0 0.0
2018-Feb-15 02:17N 28°34' W 094°15'0 0.0
2018-Feb-15 01:50N 28°34' W 094°15'0 0.0
2018-Feb-15 01:23N 28°34' W 094°15'0 0.0
2018-Feb-15 00:32N 28°34' W 094°15'0 0.0
2018-Feb-14 21:23N 28°34' W 094°15'0 0.0
2018-Feb-14 19:23N 28°34' W 094°15'0 0.0
2018-Feb-14 18:53N 28°34' W 094°15'0 0.0
2018-Feb-14 18:14N 28°34' W 094°15'0 0.0
2018-Feb-14 14:59N 28°34' W 094°15'  
2018-Feb-12 06:07N 29°01' W 093°44'214.2
2018-Feb-12 06:00N 29°02' W 093°44'914.1
2018-Feb-12 05:24N 29°10' W 093°41'613.9
2018-Feb-12 04:56N 29°17' W 093°40'613.9
2018-Feb-12 04:29N 29°23' W 093°40'4 9.1
2018-Feb-12 04:00N 29°27' W 093°40'712.5
2018-Feb-12 03:27N 29°33' W 093°45'613.3
2018-Feb-12 03:00N 29°37' W 093°49'612.3
2018-Feb-12 02:31N 29°43' W 093°52'5 9.3
2018-Feb-12 02:01N 29°46' W 093°56'4 8.2
2018-Feb-12 01:30N 29°50' W 093°57'3 5.7
2018-Feb-12 01:00N 29°53' W 093°56'4 7.6
2018-Feb-12 00:30N 29°55' W 093°53'3 6.4
2018-Feb-12 00:01N 29°58' W 093°51'4 7.5
2018-Feb-11 23:30N 29°59' W 093°56'2 4.9
2018-Feb-11 23:00N 30°01' W 093°58'2 3.1
2018-Feb-11 22:31N 30°01' W 093°60'0 0.0
2018-Feb-11 21:58N 30°01' W 093°60'0 0.0
2018-Feb-11 21:28N 30°01' W 093°60'0 0.0
2018-Feb-11 20:58N 30°01' W 093°60'0 0.0
2018-Feb-11 20:04N 30°01' W 093°60'0 0.1
2018-Feb-11 19:58N 30°01' W 093°60'0 0.0
2018-Feb-11 19:28N 30°01' W 093°60'0 0.0
2018-Feb-11 18:58N 30°01' W 093°60'0 0.0
2018-Feb-11 18:28N 30°01' W 093°60'0 0.0
2018-Feb-11 17:55N 30°01' W 093°60'0 0.0
2018-Feb-11 17:28N 30°01' W 093°60'0 0.0
2018-Feb-11 16:58N 30°01' W 093°60'0 0.0
2018-Feb-11 16:28N 30°01' W 093°60'0 0.0
2018-Feb-11 15:58N 30°01' W 093°60'0 0.0
2018-Feb-11 15:25N 30°01' W 093°60'0 0.0
2018-Feb-11 14:58N 30°01' W 093°60'0 0.0
2018-Feb-11 14:28N 30°01' W 093°60'0 0.0
2018-Feb-11 13:58N 30°01' W 093°60'0 0.0
2018-Feb-11 13:28N 30°01' W 093°60'0 0.0
2018-Feb-11 12:58N 30°01' W 093°60'0 0.0
2018-Feb-11 12:28N 30°01' W 093°60'0 0.0
2018-Feb-11 11:58N 30°01' W 093°60'0 0.0
2018-Feb-11 11:28N 30°01' W 093°60'0 0.0
2018-Feb-11 10:58N 30°01' W 093°60'0 0.0
2018-Feb-11 10:28N 30°01' W 093°60'0 0.0
2018-Feb-11 09:58N 30°01' W 093°60'0 0.0
2018-Feb-11 09:25N 30°01' W 093°60'0 0.0
2018-Feb-11 08:55N 30°01' W 093°60'0 0.0
2018-Feb-11 08:28N 30°01' W 093°60'0 0.0
2018-Feb-11 07:58N 30°01' W 093°60'0 0.0
2018-Feb-11 07:28N 30°01' W 093°60'0 0.0
2018-Feb-11 06:58N 30°01' W 093°60'0 0.0
2018-Feb-11 06:28N 30°01' W 093°60'0 0.0
2018-Feb-11 05:58N 30°01' W 093°60'0 0.0
2018-Feb-11 05:28N 30°01' W 093°60'0 0.0
2018-Feb-11 04:58N 30°01' W 093°60'0 0.0
2018-Feb-11 04:28N 30°01' W 093°60'0 0.0
2018-Feb-11 03:58N 30°01' W 093°60'0 0.0
2018-Feb-11 03:28N 30°01' W 093°60'0 0.0
2018-Feb-11 02:58N 30°01' W 093°60'0 0.0
2018-Feb-11 02:28N 30°01' W 093°60'  
Track history (hours):
 
Tides and Currents Weather Stations Pressure Air Temp Water Temp Dewpoint Dewpoint Depression Visibility Wind Speed Wind Dir Waves Ship Positions

Erikoussa

Last reported at 2018-Feb-21 02:05 UTC. Time now 2018-Feb-25 01:52 UTC.
Position N 27°48' W 096°59'.

Length 229 m; draft 8.3 m.

Type: Tanker. MMSI: 237928000.

Date/timePositionNaut miles runAvg speedWind from/ knotsBaromVisibWave heightAir tempDewpointWater temp
2018-Feb-21 02:05N 27°48' W 096°59'0 6.2
2018-Feb-21 02:00N 27°48' W 096°58'3 6.4
2018-Feb-21 01:30N 27°47' W 096°55'3 5.2
2018-Feb-21 00:58N 27°47' W 096°52'1 2.2
2018-Feb-21 00:29N 27°48' W 096°52'0 0.1
2018-Feb-20 23:59N 27°48' W 096°53'0 0.0
2018-Feb-20 23:29N 27°48' W 096°53'0 0.2
2018-Feb-20 23:00N 27°48' W 096°52'1 1.7
2018-Feb-20 22:29N 27°48' W 096°53'3 6.9
2018-Feb-20 22:00N 27°48' W 096°57'3 5.5
2018-Feb-20 21:29N 27°47' W 096°54'2 3.3
2018-Feb-20 20:57N 27°48' W 096°53'0 0.1
2018-Feb-20 20:27N 27°48' W 096°53'0 0.0
2018-Feb-20 20:00N 27°48' W 096°53'0 0.0
2018-Feb-20 19:27N 27°48' W 096°53'0 0.0
2018-Feb-20 19:00N 27°48' W 096°53'0 0.0
2018-Feb-20 18:30N 27°48' W 096°53'0 0.0
2018-Feb-20 18:00N 27°48' W 096°53'0 0.0
2018-Feb-20 17:30N 27°48' W 096°53'0 0.0
2018-Feb-20 17:00N 27°48' W 096°53'0 0.0
2018-Feb-20 16:30N 27°48' W 096°53'0 0.1
2018-Feb-20 16:00N 27°48' W 096°53'0 0.0
2018-Feb-20 15:24N 27°48' W 096°53'0 0.0
2018-Feb-20 15:00N 27°48' W 096°53'0 0.0
2018-Feb-20 14:27N 27°48' W 096°53'0 0.0
2018-Feb-20 14:00N 27°48' W 096°53'0 0.0
2018-Feb-20 13:30N 27°48' W 096°53'0 0.0
2018-Feb-20 13:00N 27°48' W 096°53'0 0.0
2018-Feb-20 12:30N 27°48' W 096°53'0 0.0
2018-Feb-20 12:00N 27°48' W 096°53'0 0.0
2018-Feb-20 11:27N 27°48' W 096°53'0 0.0
2018-Feb-20 11:00N 27°48' W 096°53'0 0.0
2018-Feb-20 10:27N 27°48' W 096°53'0 0.0
2018-Feb-20 10:00N 27°48' W 096°53'0 0.0
2018-Feb-20 09:30N 27°48' W 096°53'0 0.0
2018-Feb-20 09:00N 27°48' W 096°53'0 0.0
2018-Feb-20 08:30N 27°48' W 096°53'0 0.0
2018-Feb-20 08:00N 27°48' W 096°53'0 0.0
2018-Feb-20 07:30N 27°48' W 096°53'0 0.0
2018-Feb-20 07:00N 27°48' W 096°53'0 0.0
2018-Feb-20 06:30N 27°48' W 096°53'0 0.0
2018-Feb-20 06:00N 27°48' W 096°53'0 0.0
2018-Feb-20 05:30N 27°48' W 096°53'0 0.0
2018-Feb-20 05:00N 27°48' W 096°53'0 0.0
2018-Feb-20 04:30N 27°48' W 096°53'0 0.0
2018-Feb-20 04:00N 27°48' W 096°53'0 0.0
2018-Feb-20 03:30N 27°48' W 096°53'0 0.0
2018-Feb-20 03:00N 27°48' W 096°53'0 0.0
2018-Feb-20 02:30N 27°48' W 096°53'0 0.0
2018-Feb-20 01:57N 27°48' W 096°53'0 0.0
2018-Feb-20 01:30N 27°48' W 096°53'0 0.0
2018-Feb-20 01:00N 27°48' W 096°53'0 0.0
2018-Feb-20 00:30N 27°48' W 096°53'0 0.0
2018-Feb-20 00:00N 27°48' W 096°53'0 0.0
2018-Feb-19 23:27N 27°48' W 096°53'0 0.0
2018-Feb-19 23:00N 27°48' W 096°53'0 0.0
2018-Feb-19 22:30N 27°48' W 096°53'0 0.0
2018-Feb-19 22:00N 27°48' W 096°53'0 0.0
2018-Feb-19 21:24N 27°48' W 096°53'0 0.0
2018-Feb-19 21:00N 27°48' W 096°53'0 0.0
2018-Feb-19 20:30N 27°48' W 096°53'0 0.0
2018-Feb-19 20:00N 27°48' W 096°53'0 0.0
2018-Feb-19 19:30N 27°48' W 096°53'0 0.0
2018-Feb-19 19:00N 27°48' W 096°53'0 0.0
2018-Feb-19 18:30N 27°48' W 096°53'0 0.0
2018-Feb-19 18:00N 27°48' W 096°53'0 0.0
2018-Feb-19 17:30N 27°48' W 096°53'0 0.0
2018-Feb-19 17:00N 27°48' W 096°53'0 0.1
2018-Feb-19 16:27N 27°48' W 096°53'0 0.1
2018-Feb-19 16:00N 27°48' W 096°53'0 0.0
2018-Feb-19 15:30N 27°48' W 096°53'0 0.0
2018-Feb-19 15:00N 27°48' W 096°53'0 0.0
2018-Feb-19 14:30N 27°48' W 096°53'0 0.0
2018-Feb-19 14:00N 27°48' W 096°53'0 0.5
2018-Feb-19 13:30N 27°48' W 096°53'2 3.4
2018-Feb-19 12:59N 27°46' W 096°53'5 9.7
2018-Feb-19 12:29N 27°44' W 096°48'511.4
2018-Feb-19 12:00N 27°41' W 096°43'3 6.8
2018-Feb-19 11:29N 27°40' W 096°39'5 9.8
2018-Feb-19 10:59N 27°37' W 096°35'510.0
2018-Feb-19 10:30N 27°35' W 096°30'5 9.2
2018-Feb-19 09:58N 27°34' W 096°24'5 9.3
2018-Feb-19 09:28N 27°35' W 096°19'5 9.5
2018-Feb-19 08:54N 27°35' W 096°13'5 9.5
2018-Feb-19 08:24N 27°36' W 096°08'4 9.6
2018-Feb-19 07:56N 27°36' W 096°03'4 9.8
2018-Feb-19 07:30N 27°36' W 095°58'6 9.9
2018-Feb-19 06:56N 27°37' W 095°52'5 9.9
2018-Feb-19 06:26N 27°37' W 095°46'7010.4
2018-Feb-18 23:44N 27°43' W 094°28'53 6.8
2018-Feb-18 15:52N 28°36' W 094°25'3 7.6
2018-Feb-18 15:24N 28°40' W 094°25'3 6.4
2018-Feb-18 15:00N 28°42' W 094°24'4 8.0
2018-Feb-18 14:30N 28°44' W 094°19'4 7.9
2018-Feb-18 13:58N 28°45' W 094°15'510.6
2018-Feb-18 13:29N 28°47' W 094°10'0 0.8
2018-Feb-18 12:59N 28°47' W 094°09'1 0.9
2018-Feb-18 12:26N 28°47' W 094°10'1 1.4
2018-Feb-18 11:59N 28°46' W 094°09'0 0.4
2018-Feb-18 10:55N 28°47' W 094°09'0 0.0
2018-Feb-18 08:35N 28°47' W 094°09'0 0.0
2018-Feb-18 08:29N 28°47' W 094°09'0 0.0
2018-Feb-18 07:45N 28°47' W 094°09'0 0.0
2018-Feb-18 07:19N 28°47' W 094°09'0 0.0
2018-Feb-18 03:10N 28°47' W 094°09'7 0.5
2018-Feb-17 15:03N 28°43' W 094°15'4 0.5
2018-Feb-17 07:17N 28°40' W 094°17'0 0.2
2018-Feb-17 06:52N 28°39' W 094°17'0 1.1
2018-Feb-17 06:30N 28°40' W 094°17'1 1.0
2018-Feb-17 05:52N 28°39' W 094°17'0 0.9
2018-Feb-17 05:25N 28°39' W 094°17'1 0.9
2018-Feb-17 04:12N 28°38' W 094°17'1 2.8
2018-Feb-17 03:57N 28°37' W 094°17'3 6.2
2018-Feb-17 03:30N 28°35' W 094°15'0 0.3
2018-Feb-17 02:35N 28°35' W 094°15'1 0.0
2018-Feb-16 15:08N 28°34' W 094°15'0 0.1
2018-Feb-16 14:59N 28°34' W 094°15'0 0.0
2018-Feb-16 10:56N 28°34' W 094°15'0 0.0
2018-Feb-15 06:59N 28°34' W 094°15'0 0.0
2018-Feb-15 06:20N 28°34' W 094°15'0 0.0
2018-Feb-15 05:59N 28°34' W 094°15'0 0.0
2018-Feb-15 05:29N 28°34' W 094°15'0 0.0
2018-Feb-15 04:29N 28°34' W 094°15'0 0.0
2018-Feb-15 03:14N 28°34' W 094°15'0 0.0
2018-Feb-15 02:44N 28°34' W 094°15'0 0.0
2018-Feb-15 02:17N 28°34' W 094°15'0 0.0
2018-Feb-15 01:50N 28°34' W 094°15'0 0.0
2018-Feb-15 01:23N 28°34' W 094°15'0 0.0
2018-Feb-15 00:32N 28°34' W 094°15'0 0.0
2018-Feb-14 21:23N 28°34' W 094°15'0 0.0
2018-Feb-14 19:23N 28°34' W 094°15'0 0.0
2018-Feb-14 18:53N 28°34' W 094°15'0 0.0
2018-Feb-14 18:14N 28°34' W 094°15'0 0.0
2018-Feb-14 14:59N 28°34' W 094°15'  
2018-Feb-12 06:07N 29°01' W 093°44'214.2
2018-Feb-12 06:00N 29°02' W 093°44'914.1
2018-Feb-12 05:24N 29°10' W 093°41'613.9
2018-Feb-12 04:56N 29°17' W 093°40'613.9
2018-Feb-12 04:29N 29°23' W 093°40'4 9.1
2018-Feb-12 04:00N 29°27' W 093°40'712.5
2018-Feb-12 03:27N 29°33' W 093°45'613.3
2018-Feb-12 03:00N 29°37' W 093°49'612.3
2018-Feb-12 02:31N 29°43' W 093°52'5 9.3
2018-Feb-12 02:01N 29°46' W 093°56'4 8.2
2018-Feb-12 01:30N 29°50' W 093°57'3 5.7
2018-Feb-12 01:00N 29°53' W 093°56'4 7.6
2018-Feb-12 00:30N 29°55' W 093°53'3 6.4
2018-Feb-12 00:01N 29°58' W 093°51'4 7.5
2018-Feb-11 23:30N 29°59' W 093°56'2 4.9
2018-Feb-11 23:00N 30°01' W 093°58'2 3.1
2018-Feb-11 22:31N 30°01' W 093°60'0 0.0
2018-Feb-11 21:58N 30°01' W 093°60'0 0.0
2018-Feb-11 21:28N 30°01' W 093°60'0 0.0
2018-Feb-11 20:58N 30°01' W 093°60'0 0.0
2018-Feb-11 20:04N 30°01' W 093°60'0 0.1
2018-Feb-11 19:58N 30°01' W 093°60'0 0.0
2018-Feb-11 19:28N 30°01' W 093°60'0 0.0
2018-Feb-11 18:58N 30°01' W 093°60'0 0.0
2018-Feb-11 18:28N 30°01' W 093°60'0 0.0
2018-Feb-11 17:55N 30°01' W 093°60'0 0.0
2018-Feb-11 17:28N 30°01' W 093°60'0 0.0
2018-Feb-11 16:58N 30°01' W 093°60'0 0.0
2018-Feb-11 16:28N 30°01' W 093°60'0 0.0
2018-Feb-11 15:58N 30°01' W 093°60'0 0.0
2018-Feb-11 15:25N 30°01' W 093°60'0 0.0
2018-Feb-11 14:58N 30°01' W 093°60'0 0.0
2018-Feb-11 14:28N 30°01' W 093°60'0 0.0
2018-Feb-11 13:58N 30°01' W 093°60'0 0.0
2018-Feb-11 13:28N 30°01' W 093°60'0 0.0
2018-Feb-11 12:58N 30°01' W 093°60'0 0.0
2018-Feb-11 12:28N 30°01' W 093°60'0 0.0
2018-Feb-11 11:58N 30°01' W 093°60'0 0.0
2018-Feb-11 11:28N 30°01' W 093°60'0 0.0
2018-Feb-11 10:58N 30°01' W 093°60'0 0.0
2018-Feb-11 10:28N 30°01' W 093°60'0 0.0
2018-Feb-11 09:58N 30°01' W 093°60'0 0.0
2018-Feb-11 09:25N 30°01' W 093°60'0 0.0
2018-Feb-11 08:55N 30°01' W 093°60'0 0.0
2018-Feb-11 08:28N 30°01' W 093°60'0 0.0
2018-Feb-11 07:58N 30°01' W 093°60'0 0.0
2018-Feb-11 07:28N 30°01' W 093°60'0 0.0
2018-Feb-11 06:58N 30°01' W 093°60'0 0.0
2018-Feb-11 06:28N 30°01' W 093°60'0 0.0
2018-Feb-11 05:58N 30°01' W 093°60'0 0.0
2018-Feb-11 05:28N 30°01' W 093°60'0 0.0
2018-Feb-11 04:58N 30°01' W 093°60'0 0.0
2018-Feb-11 04:28N 30°01' W 093°60'0 0.0
2018-Feb-11 03:58N 30°01' W 093°60'0 0.0
2018-Feb-11 03:28N 30°01' W 093°60'0 0.0
2018-Feb-11 02:58N 30°01' W 093°60'0 0.0
2018-Feb-11 02:28N 30°01' W 093°60'  

Dump ship's entire track history